EGTK/OXF METAR and TAF weather

Enter ICAO airport designator
Station Type Date Time Source
EGTK METAR 2019/12/13 19:50 UTC NOAA

EGTK 131950Z 22008KT CAVOK 05/02 Q0981


Station Type Date Time Source
EGTK Decoded METAR 2019/12/13 19:50 UTC NOAA

Station name not available
Dec 13, 2019 - 02:50 PM EST / 2019.12.13 1950 UTC
Wind: from the SW (220 degrees) at 9 MPH (8 KT):0
Visibility: greater than 7 mile(s):0
Temperature: 41 F (5 C)
Dew Point: 35 F (2 C)
Relative Humidity: 80%
Pressure (altimeter): 28.97 in. Hg (0981 hPa)
ob: EGTK 131950Z 22008KT CAVOK 05/02 Q0981
cycle: 20

Station Type Date Time Source
EGTK TAF UTC NOAA

Error!

Example: see airport list